Time;durP1;ratioP1;P1;durP2;ratioP2;P2;SDS_P1;SDS_P2;PMS_P1;PMS_P2;Temp;Humidity;BMP_temperature;BMP_pressure;BME280_temperature;BME280_humidity;BME280_pressure;Samples;Min_cycle;Max_cycle;Signal;HPM_P1;HPM_P2
2022/08/31 00:03:54;;;;;;;11.80;3.67;;;;;;;29.27;38.77;100721.59;4215771;28;20433;-50
2022/08/31 00:05:57;;;;;;;6.55;3.47;;;;;;;29.24;38.33;100725.94;4215325;28;20101;-54
2022/08/31 00:07:58;;;;;;;5.25;3.58;;;;;;;29.22;38.21;100725.44;4215220;28;20085;-53
2022/08/31 00:10:12;;;;;;;10.88;3.25;;;;;;;29.21;38.14;100740.69;4214818;28;20559;-53
2022/08/31 00:12:14;;;;;;;8.23;3.22;;;;;;;29.17;38.46;100734.09;4224294;28;20040;-52
2022/08/31 00:14:15;;;;;;;4.97;3.17;;;;;;;29.15;38.23;100741.25;4215688;28;20036;-53
2022/08/31 00:16:17;;;;;;;9.73;3.30;;;;;;;29.12;38.43;100740.75;4217207;28;20105;-55
2022/08/31 00:18:19;;;;;;;7.57;2.90;;;;;;;29.10;38.41;100739.47;4225242;28;20048;-51
2022/08/31 00:20:22;;;;;;;9.38;3.13;;;;;;;29.08;38.42;100742.59;4219374;28;20036;-50
2022/08/31 00:22:23;;;;;;;8.40;3.00;;;;;;;29.10;38.49;100739.47;4208629;28;20040;-51
2022/08/31 00:24:24;;;;;;;7.63;3.42;;;;;;;29.10;38.34;100731.84;4214552;28;20097;-51
2022/08/31 00:26:26;;;;;;;8.75;2.70;;;;;;;29.06;38.51;100738.50;4214293;28;20121;-53
2022/08/31 00:28:27;;;;;;;6.22;3.70;;;;;;;29.09;38.58;100749.06;4223101;28;20383;-51
2022/08/31 00:30:29;;;;;;;12.73;3.17;;;;;;;29.08;38.32;100748.25;4215677;28;20039;-52
2022/08/31 00:32:31;;;;;;;6.20;3.08;;;;;;;29.08;38.67;100759.50;4224392;28;20044;-54
2022/08/31 00:34:32;;;;;;;8.00;3.42;;;;;;;29.04;38.49;100769.81;4213896;28;20085;-53
2022/08/31 00:36:33;;;;;;;5.65;3.10;;;;;;;29.03;38.31;100761.69;4213224;28;20433;-54
2022/08/31 00:38:35;;;;;;;5.65;3.00;;;;;;;29.05;38.48;100765.03;4225799;28;20040;-51
2022/08/31 00:40:37;;;;;;;10.57;3.10;;;;;;;28.99;38.33;100764.38;4219424;28;20044;-54
2022/08/31 00:42:38;;;;;;;6.38;2.83;;;;;;;28.99;38.27;100774.81;4229187;28;20048;-53
2022/08/31 00:44:40;;;;;;;3.15;2.50;;;;;;;29.02;38.38;100776.97;4228866;28;20112;-51
2022/08/31 00:46:42;;;;;;;7.18;2.72;;;;;;;29.01;38.16;100769.69;4230968;28;20039;-50
2022/08/31 00:49:06;;;;;;;3.95;2.67;;;;;;;28.94;38.11;100758.91;4229162;28;20039;-50
2022/08/31 00:51:08;;;;;;;5.38;2.80;;;;;;;29.02;37.70;100748.78;4230700;28;20092;-52
2022/08/31 00:53:10;;;;;;;2.90;2.70;;;;;;;28.99;38.02;100755.09;4228305;28;20088;-53
2022/08/31 00:55:18;;;;;;;5.25;2.80;;;;;;;29.03;37.67;100753.25;4213946;28;20078;-51
2022/08/31 00:57:22;;;;;;;6.18;2.72;;;;;;;28.97;37.38;100747.00;4212736;28;20066;-50
2022/08/31 00:59:24;;;;;;;5.50;2.83;;;;;;;28.99;37.78;100755.09;4227847;28;20040;-51
2022/08/31 01:01:26;;;;;;;6.40;2.80;;;;;;;28.99;37.50;100760.72;4222908;28;20039;-50
2022/08/31 01:03:27;;;;;;;2.75;2.30;;;;;;;29.01;37.70;100749.97;4214196;28;20044;-50
2022/08/31 01:05:30;;;;;;;2.97;2.50;;;;;;;28.94;37.59;100758.09;4214254;28;20036;-52
2022/08/31 01:07:31;;;;;;;3.58;2.58;;;;;;;28.98;37.43;100770.34;4223568;28;20051;-49
2022/08/31 01:09:38;;;;;;;5.88;2.88;;;;;;;28.96;37.57;100755.81;4219612;28;20108;-52
2022/08/31 01:11:41;;;;;;;5.60;2.67;;;;;;;28.82;37.31;100751.19;4213489;28;20117;-51
2022/08/31 01:13:43;;;;;;;5.35;2.90;;;;;;;28.98;37.18;100781.63;4213649;28;20454;-51
2022/08/31 01:15:55;;;;;;;;;;;;;;;28.95;37.12;100788.75;4214782;28;20044;-52
2022/08/31 01:18:02;;;;;;;2.78;2.30;;;;;;;29.02;37.27;100793.88;4213387;28;19977;-50
2022/08/31 01:20:15;;;;;;;3.85;3.13;;;;;;;29.01;37.07;100792.22;4218542;28;20097;-52
2022/08/31 01:22:31;;;;;;;2.60;2.40;;;;;;;29.03;37.20;100784.25;4213294;28;20047;-53
2022/08/31 01:24:32;;;;;;;;;;;;;;;28.98;37.13;100813.44;4214773;28;20044;-53
2022/08/31 01:26:36;;;;;;;7.05;2.80;;;;;;;28.99;37.06;100784.09;4215771;28;19916;-52
2022/08/31 01:28:37;;;;;;;9.38;2.88;;;;;;;29.03;36.98;100784.25;4219127;28;20097;-51
2022/08/31 01:30:40;;;;;;;11.80;3.50;;;;;;;29.00;36.97;100780.13;4213383;28;20552;-52
2022/08/31 01:32:42;;;;;;;23.33;3.83;;;;;;;29.04;36.87;100780.25;4213266;28;20040;-54
2022/08/31 01:34:43;;;;;;;34.30;4.75;;;;;;;29.00;37.09;100779.28;4214580;28;20105;-52
2022/08/31 01:36:46;;;;;;;26.15;3.40;;;;;;;29.05;37.08;100784.75;4215089;28;20372;-52
2022/08/31 01:38:48;;;;;;;13.98;3.33;;;;;;;29.01;36.59;100783.75;4213682;28;20105;-53
2022/08/31 01:40:57;;;;;;;17.35;3.30;;;;;;;29.02;36.87;100793.88;4219986;28;20031;-53
2022/08/31 01:42:58;;;;;;;16.25;3.15;;;;;;;29.02;36.77;100793.88;4213417;28;20040;-53
2022/08/31 01:44:59;;;;;;;7.53;2.70;;;;;;;28.97;36.05;100803.34;4212658;28;20044;-53
2022/08/31 01:47:01;;;;;;;19.65;3.25;;;;;;;28.81;35.98;100796.56;4217413;28;20101;-53
2022/08/31 01:49:02;;;;;;;12.00;3.00;;;;;;;28.79;36.14;100813.81;4222116;28;20069;-53
2022/08/31 01:51:04;;;;;;;16.67;3.20;;;;;;;28.75;36.02;100812.84;4230617;28;20101;-53
2022/08/31 01:53:09;;;;;;;10.38;2.95;;;;;;;28.69;35.95;100808.56;4222098;28;20483;-53
2022/08/31 01:55:10;;;;;;;;;;;;;;;28.63;36.21;100809.91;4214861;28;20494;-50
2022/08/31 01:57:12;;;;;;;7.38;2.63;;;;;;;28.66;35.95;100808.41;4223782;28;19941;-53
2022/08/31 01:59:15;;;;;;;13.13;2.85;;;;;;;28.64;35.74;100811.56;4229554;28;20035;-53
2022/08/31 02:01:17;;;;;;;9.75;2.42;;;;;;;28.59;36.05;100820.19;4230165;28;20051;-54
2022/08/31 02:03:21;;;;;;;8.07;2.67;;;;;;;28.54;35.95;100809.09;4230509;28;20036;-53
2022/08/31 02:05:22;;;;;;;8.25;2.70;;;;;;;28.46;35.75;100808.00;4221921;28;20475;-54
2022/08/31 02:07:24;;;;;;;9.90;3.42;;;;;;;28.52;35.82;100814.25;4213437;28;20035;-51
2022/08/31 02:09:26;;;;;;;8.82;3.55;;;;;;;28.50;36.20;100816.56;4216949;28;20040;-53
2022/08/31 02:11:28;;;;;;;15.40;3.78;;;;;;;28.49;36.24;100809.28;4216207;28;20450;-53
2022/08/31 02:13:29;;;;;;;16.05;4.65;;;;;;;28.48;36.14;100808.47;4218053;28;20159;-51
2022/08/31 02:15:31;;;;;;;16.75;4.97;;;;;;;28.46;36.10;100809.97;4219934;28;20036;-52
2022/08/31 02:17:33;;;;;;;10.25;4.28;;;;;;;28.46;35.98;100810.81;4216785;28;20036;-53
2022/08/31 02:19:34;;;;;;;14.65;4.70;;;;;;;28.18;35.94;100765.34;4225393;28;20097;-53
2022/08/31 02:21:36;;;;;;;9.60;4.03;;;;;;;28.19;35.96;100769.78;4216332;28;20093;-53
2022/08/31 02:23:38;;;;;;;11.55;4.68;;;;;;;28.43;36.17;100805.00;4216757;28;20070;-54
2022/08/31 02:25:41;;;;;;;12.45;4.50;;;;;;;28.41;36.04;100801.69;4216833;28;20400;-51
2022/08/31 02:27:46;;;;;;;20.48;3.97;;;;;;;28.39;35.98;100804.84;4216987;28;20082;-55
2022/08/31 02:29:50;;;;;;;11.40;4.53;;;;;;;28.40;36.28;100802.84;4216199;28;20093;-52
2022/08/31 02:31:51;;;;;;;8.20;4.10;;;;;;;28.39;35.81;100792.78;4215990;28;20036;-53
2022/08/31 02:33:53;;;;;;;8.57;4.10;;;;;;;28.41;35.98;100796.06;4216740;28;20040;-53
2022/08/31 02:35:54;;;;;;;11.82;4.15;;;;;;;28.40;36.21;100800.03;4220763;28;20070;-52
2022/08/31 02:37:56;;;;;;;8.35;4.32;;;;;;;28.35;35.92;100793.44;4225885;28;20039;-50
2022/08/31 02:39:57;;;;;;;11.85;4.50;;;;;;;28.34;35.75;100802.19;4227772;28;20151;-50
2022/08/31 02:41:58;;;;;;;13.98;4.25;;;;;;;28.36;36.02;100800.75;4223108;28;20029;-51
2022/08/31 02:43:59;;;;;;;8.32;3.97;;;;;;;28.35;36.18;100801.06;4216445;28;20031;-51
2022/08/31 02:46:04;;;;;;;13.05;4.63;;;;;;;28.19;35.98;100766.97;4216742;28;20100;-51
2022/08/31 02:48:07;;;;;;;12.15;4.45;;;;;;;28.35;35.79;100798.25;4215864;28;20081;-54
2022/08/31 02:50:11;;;;;;;9.48;3.72;;;;;;;28.35;35.90;100806.69;4216127;28;20032;-53
2022/08/31 02:52:12;;;;;;;7.65;4.15;;;;;;;28.34;36.10;100808.69;4215864;28;20040;-53
2022/08/31 02:54:14;;;;;;;10.20;4.05;;;;;;;28.33;36.08;100807.00;4226514;28;20035;-54
2022/08/31 02:56:15;;;;;;;10.07;4.18;;;;;;;28.32;35.97;100799.72;4233319;28;20090;-54
2022/08/31 02:58:16;;;;;;;10.73;4.50;;;;;;;28.19;36.27;100783.84;4227255;28;20039;-53
2022/08/31 03:00:22;;;;;;;8.38;3.95;;;;;;;28.30;36.29;100799.22;4224388;28;20036;-55
2022/08/31 03:02:24;;;;;;;7.78;4.13;;;;;;;28.24;35.86;100794.94;4231392;28;20533;-54
2022/08/31 03:04:25;;;;;;;8.93;3.97;;;;;;;28.24;36.29;100797.75;4225421;28;20448;-53
2022/08/31 03:06:30;;;;;;;7.05;3.88;;;;;;;28.03;36.16;100751.78;4232533;28;20457;-54
2022/08/31 03:08:31;;;;;;;;;;;;;;;28.24;36.13;100796.94;4227372;28;20020;-51
2022/08/31 03:10:33;;;;;;;9.90;3.97;;;;;;;28.29;35.85;100791.94;4215921;28;19916;-54
2022/08/31 03:12:35;;;;;;;8.52;3.70;;;;;;;28.06;35.90;100746.31;4215763;28;20040;-53
2022/08/31 03:14:37;;;;;;;8.52;3.97;;;;;;;28.30;35.95;100785.13;4216363;28;20085;-53
2022/08/31 03:16:39;;;;;;;9.23;3.75;;;;;;;28.00;35.84;100750.47;4225650;28;20097;-52
2022/08/31 03:18:41;;;;;;;6.93;3.50;;;;;;;28.28;36.10;100778.22;4232337;28;20032;-54
2022/08/31 03:20:42;;;;;;;8.02;3.83;;;;;;;28.27;36.01;100791.47;4220398;28;20082;-54
2022/08/31 03:22:43;;;;;;;6.45;3.50;;;;;;;28.26;35.88;100784.16;4216010;28;20086;-55
2022/08/31 03:24:45;;;;;;;5.13;3.65;;;;;;;28.25;35.99;100793.75;4215539;28;20047;-53
2022/08/31 03:26:47;;;;;;;7.90;3.63;;;;;;;28.24;36.12;100789.31;4215243;28;20048;-52
2022/08/31 03:28:51;;;;;;;8.52;3.97;;;;;;;28.20;35.97;100785.50;4215804;28;20537;-51
2022/08/31 03:30:53;;;;;;;7.90;3.90;;;;;;;28.23;35.91;100782.03;4215252;28;20040;-52
2022/08/31 03:32:54;;;;;;;7.35;3.28;;;;;;;28.24;35.82;100780.03;4215451;28;20480;-54
2022/08/31 03:34:59;;;;;;;7.47;3.85;;;;;;;28.23;35.66;100776.41;4216113;28;20101;-53
2022/08/31 03:37:00;;;;;;;9.77;4.07;;;;;;;28.23;35.74;100787.66;4215927;28;20028;-55
2022/08/31 03:39:02;;;;;;;6.28;3.83;;;;;;;28.23;35.46;100779.22;4215426;28;20433;-54
2022/08/31 03:41:04;;;;;;;6.28;3.30;;;;;;;28.22;35.54;100777.53;4213783;28;20109;-53
2022/08/31 03:43:06;;;;;;;8.30;3.75;;;;;;;28.14;35.57;100758.72;4215055;28;20036;-53
2022/08/31 03:45:17;;;;;;;7.45;3.50;;;;;;;28.09;35.78;100745.66;4222966;28;20440;-54
2022/08/31 03:47:20;;;;;;;6.85;3.78;;;;;;;28.23;35.84;100767.16;4216888;28;20040;-53
2022/08/31 03:49:24;;;;;;;7.93;3.60;;;;;;;28.22;35.99;100777.53;4215233;28;20044;-54
2022/08/31 03:51:25;;;;;;;11.40;3.67;;;;;;;28.24;35.84;100775.25;4226730;28;20048;-53
2022/08/31 03:53:28;;;;;;;8.77;3.35;;;;;;;28.24;36.09;100775.25;4224289;28;20039;-53
2022/08/31 03:55:35;;;;;;;8.40;3.03;;;;;;;28.08;35.87;100748.78;4231037;28;20043;-54
2022/08/31 03:57:43;;;;;;;6.05;3.25;;;;;;;28.06;35.73;100737.06;4218595;28;20101;-53
2022/08/31 03:59:44;;;;;;;10.45;4.03;;;;;;;28.25;35.94;100764.81;4214577;28;20548;-54
2022/08/31 04:01:45;;;;;;;9.02;3.90;;;;;;;28.17;35.75;100752.41;4217738;28;20101;-54
2022/08/31 04:03:47;;;;;;;7.00;3.55;;;;;;;28.24;35.81;100768.78;4226173;28;20039;-54
2022/08/31 04:05:49;;;;;;;8.38;3.58;;;;;;;28.24;36.00;100769.63;4216987;28;20074;-53
2022/08/31 04:07:50;;;;;;;7.55;3.50;;;;;;;28.21;35.71;100770.28;4218645;28;20109;-55
2022/08/31 04:09:52;;;;;;;6.88;3.22;;;;;;;28.24;35.70;100775.25;4214972;28;20380;-54
2022/08/31 04:11:53;;;;;;;6.78;3.13;;;;;;;28.23;35.85;100770.78;4226854;28;20052;-54
2022/08/31 04:13:57;;;;;;;8.68;3.60;;;;;;;28.24;35.71;100765.97;4221264;28;20092;-54
2022/08/31 04:15:59;;;;;;;9.47;3.40;;;;;;;28.24;35.65;100768.78;4231558;27;20036;-55
2022/08/31 04:18:03;;;;;;;7.13;3.45;;;;;;;28.23;35.84;100767.97;4221516;28;20326;-53
2022/08/31 04:20:05;;;;;;;7.28;3.65;;;;;;;28.18;35.73;100758.84;4214384;28;20043;-53
2022/08/31 04:22:07;;;;;;;5.07;3.13;;;;;;;28.24;35.59;100771.59;4221110;28;20078;-52
2022/08/31 04:24:09;;;;;;;7.82;3.08;;;;;;;28.23;35.75;100779.22;4215856;28;20101;-55
2022/08/31 04:26:28;;;;;;;4.07;2.95;;;;;;;28.07;35.75;100752.78;4219773;28;20031;-52
2022/08/31 04:28:30;;;;;;;6.47;3.15;;;;;;;28.22;35.65;100787.97;4221478;28;20036;-53
2022/08/31 04:30:31;;;;;;;4.72;3.33;;;;;;;28.24;35.33;100791.28;4219187;28;20056;-53
2022/08/31 04:32:41;;;;;;;5.55;2.90;;;;;;;28.00;35.57;100770.16;4231639;28;20040;-54
2022/08/31 04:34:42;;;;;;;6.35;3.25;;;;;;;28.19;35.55;100795.13;4231411;28;20031;-54
2022/08/31 04:36:44;;;;;;;4.60;3.00;;;;;;;27.97;35.83;100776.44;4231939;28;20031;-51
2022/08/31 04:38:47;;;;;;;6.93;3.15;;;;;;;28.20;35.80;100810.81;4231426;28;20043;-51
2022/08/31 04:40:49;;;;;;;7.00;3.10;;;;;;;28.20;35.77;100812.81;4231090;28;20039;-54
2022/08/31 04:42:50;;;;;;;8.52;3.05;;;;;;;28.17;35.64;100803.03;4224647;28;20475;-53
2022/08/31 04:44:51;;;;;;;5.30;2.80;;;;;;;28.04;35.61;100787.19;4219004;28;20039;-54
2022/08/31 04:46:54;;;;;;;3.35;2.90;;;;;;;28.22;35.41;100813.28;4231239;28;20100;-53
2022/08/31 04:48:58;;;;;;;5.47;2.83;;;;;;;28.21;35.76;100820.09;4231269;28;20039;-54
2022/08/31 04:51:05;;;;;;;3.45;2.63;;;;;;;28.22;35.54;100810.47;4230924;28;20035;-52
2022/08/31 04:53:06;;;;;;;11.93;3.30;;;;;;;28.19;35.50;100806.38;4231435;28;20417;-52
2022/08/31 04:55:10;;;;;;;5.32;3.03;;;;;;;28.19;35.43;100809.19;4216025;28;20093;-53
2022/08/31 04:57:12;;;;;;;4.82;3.03;;;;;;;28.17;35.56;100803.03;4223432;28;20044;-51
2022/08/31 04:59:15;;;;;;;6.20;2.78;;;;;;;28.18;35.57;100793.47;4216136;28;20032;-53
2022/08/31 05:01:21;;;;;;;5.80;3.10;;;;;;;28.17;35.25;100788.16;4227916;28;20421;-53
2022/08/31 05:03:22;;;;;;;3.78;2.97;;;;;;;28.10;35.65;100774.63;4217536;28;20043;-54
2022/08/31 05:05:24;;;;;;;4.60;2.85;;;;;;;28.12;35.58;100789.97;4227309;28;20036;-53
2022/08/31 05:07:25;;;;;;;5.15;3.15;;;;;;;28.05;35.33;100781.25;4214484;28;20117;-52
2022/08/31 05:09:27;;;;;;;2.95;2.33;;;;;;;28.17;35.33;100800.22;4217014;28;20035;-53
2022/08/31 05:11:28;;;;;;;3.80;2.90;;;;;;;28.14;35.42;100803.72;4219479;28;20031;-54
2022/08/31 05:13:30;;;;;;;3.78;2.85;;;;;;;28.16;35.39;100807.03;4217130;28;20043;-52
2022/08/31 05:15:32;;;;;;;3.78;2.50;;;;;;;28.16;35.25;100809.84;4219827;28;20069;-54
2022/08/31 05:17:36;;;;;;;3.50;2.97;;;;;;;28.02;35.38;100778.25;4231103;28;20096;-54
2022/08/31 05:19:41;;;;;;;4.15;2.65;;;;;;;28.15;35.45;100796.13;4212526;28;20056;-53
2022/08/31 05:21:43;;;;;;;3.83;2.75;;;;;;;28.14;35.06;100797.28;4231083;28;20031;-54
2022/08/31 05:23:46;;;;;;;2.80;2.42;;;;;;;28.02;35.35;100767.00;4230892;28;20035;-54
2022/08/31 05:25:47;;;;;;;3.38;2.78;;;;;;;28.14;35.40;100795.28;4230667;28;20040;-53
2022/08/31 05:27:58;;;;;;;5.72;2.85;;;;;;;28.13;35.36;100793.63;4224125;28;20028;-54
2022/08/31 05:29:59;;;;;;;4.57;3.10;;;;;;;28.13;35.41;100796.44;4214822;28;20037;-53
2022/08/31 05:32:01;;;;;;;3.38;2.28;;;;;;;28.10;35.26;100788.69;4213688;28;20093;-53
2022/08/31 05:34:03;;;;;;;4.20;2.60;;;;;;;28.13;35.37;100802.06;4213840;28;20113;-54
2022/08/31 05:36:05;;;;;;;5.03;2.45;;;;;;;28.12;35.11;100806.03;4214103;28;20032;-55
2022/08/31 05:38:07;;;;;;;4.65;2.38;;;;;;;28.12;35.11;100800.41;4213903;28;20040;-50
2022/08/31 05:40:09;;;;;;;4.88;2.97;;;;;;;27.84;35.20;100755.78;4213991;28;20089;-54
2022/08/31 05:42:14;;;;;;;3.25;2.38;;;;;;;28.11;35.10;100804.38;4214900;28;20039;-53
2022/08/31 05:44:16;;;;;;;;;;;;;;;28.07;35.45;100800.59;4217752;28;20048;-54
2022/08/31 05:46:17;;;;;;;3.38;2.90;;;;;;;28.15;35.08;100811.00;4226777;28;19912;-54
2022/08/31 05:48:18;;;;;;;3.80;2.47;;;;;;;28.15;35.12;100811.00;4219012;28;20112;-53
2022/08/31 05:50:22;;;;;;;5.78;2.85;;;;;;;28.06;35.01;100796.13;4217084;28;20105;-52
2022/08/31 05:52:24;;;;;;;3.72;2.78;;;;;;;28.12;35.16;100794.78;4230971;28;20131;-53
2022/08/31 05:54:26;;;;;;;4.53;2.38;;;;;;;27.94;35.01;100762.22;4233860;28;20040;-53
2022/08/31 05:56:27;;;;;;;4.18;2.38;;;;;;;27.99;35.13;100767.66;4233949;28;20035;-53
2022/08/31 05:58:29;;;;;;;3.53;2.38;;;;;;;27.88;35.13;100757.94;4233680;28;20061;-54
2022/08/31 06:00:31;;;;;;;3.58;2.55;;;;;;;28.07;35.26;100794.97;4233273;28;20405;-53
2022/08/31 06:02:33;;;;;;;3.35;2.30;;;;;;;28.03;35.35;100777.09;4233661;28;20380;-50
2022/08/31 06:04:37;;;;;;;3.85;2.40;;;;;;;28.03;35.12;100786.34;4227410;28;20111;-54
2022/08/31 06:06:39;;;;;;;4.33;2.90;;;;;;;28.06;35.23;100791.31;4233619;27;20188;-54
2022/08/31 06:08:41;;;;;;;3.40;2.53;;;;;;;28.04;35.34;100775.94;4233970;28;20040;-51
2022/08/31 06:10:42;;;;;;;3.22;2.67;;;;;;;27.58;35.29;100709.97;4221384;28;20390;-52
2022/08/31 06:12:46;;;;;;;3.95;2.63;;;;;;;28.05;34.93;100783.22;4216764;28;20093;-54
2022/08/31 06:14:47;;;;;;;3.42;2.40;;;;;;;28.06;35.31;100790.50;4216676;28;20036;-54
2022/08/31 06:16:49;;;;;;;3.10;2.30;;;;;;;27.98;35.34;100771.66;4216435;28;20105;-52
2022/08/31 06:18:52;;;;;;;3.67;2.40;;;;;;;28.01;35.41;100788.69;4216548;28;20036;-53
2022/08/31 06:21:02;;;;;;;3.35;2.38;;;;;;;28.01;35.34;100787.88;4216334;28;20098;-51
2022/08/31 06:23:05;;;;;;;3.70;1.95;;;;;;;27.81;35.17;100752.81;4216929;28;20032;-51
2022/08/31 06:25:09;;;;;;;4.43;2.50;;;;;;;28.01;35.23;100785.06;4216551;28;20552;-52
2022/08/31 06:27:10;;;;;;;2.65;2.13;;;;;;;27.96;35.12;100779.59;4216867;28;20040;-54
2022/08/31 06:29:11;;;;;;;2.75;2.30;;;;;;;28.02;35.30;100795.13;4217216;28;20028;-53
2022/08/31 06:31:22;;;;;;;2.95;2.50;;;;;;;28.02;35.13;100792.31;4216303;28;20116;-54
2022/08/31 06:33:26;;;;;;;2.60;2.20;;;;;;;27.91;35.26;100782.59;4216654;28;20077;-54
2022/08/31 06:35:28;;;;;;;2.40;2.20;;;;;;;27.84;35.22;100772.66;4229515;28;20051;-53
2022/08/31 06:39:52;;;;;;;3.65;2.30;;;;;;;28.00;35.41;100792.66;4223527;28;20031;-53
2022/08/31 06:41:54;;;;;;;2.88;2.47;;;;;;;28.00;35.00;100786.22;4225904;28;20035;-54
2022/08/31 06:43:58;;;;;;;2.67;1.98;;;;;;;27.99;35.12;100792.97;4216559;28;20465;-51
2022/08/31 06:45:59;;;;;;;2.92;2.50;;;;;;;28.00;34.96;100786.22;4219398;28;20048;-50
2022/08/31 06:48:02;;;;;;;3.08;2.72;;;;;;;27.82;35.17;100766.56;4221285;28;20047;-53
2022/08/31 06:50:04;;;;;;;2.53;2.20;;;;;;;27.96;35.25;100785.22;4227337;28;20040;-53
2022/08/31 06:52:05;;;;;;;3.50;2.10;;;;;;;28.00;35.13;100786.22;4228260;28;20390;-51
2022/08/31 06:54:09;;;;;;;2.42;1.67;;;;;;;27.99;35.06;100791.00;4227028;28;20035;-53
2022/08/31 06:56:15;;;;;;;3.55;2.15;;;;;;;28.01;35.05;100782.25;4218760;28;20541;-51
2022/08/31 06:58:16;;;;;;;4.50;2.17;;;;;;;27.92;35.06;100778.63;4214748;28;20081;-50
2022/08/31 07:00:18;;;;;;;4.15;2.30;;;;;;;27.98;35.09;100788.53;4217835;28;20040;-51
2022/08/31 07:02:22;;;;;;;2.72;2.20;;;;;;;27.98;35.08;100794.16;4231853;28;20039;-53
2022/08/31 07:04:23;;;;;;;1.83;1.60;;;;;;;27.94;35.05;100782.72;4217893;28;20036;-52
2022/08/31 07:06:27;;;;;;;2.25;2.05;;;;;;;27.97;35.15;100792.50;4228568;28;20039;-53
2022/08/31 07:08:29;;;;;;;2.58;1.98;;;;;;;27.94;34.98;100788.34;4215079;28;20052;-52
2022/08/31 07:10:33;;;;;;;2.00;1.85;;;;;;;27.96;34.95;100790.84;4232403;28;20035;-53
2022/08/31 07:12:35;;;;;;;3.67;2.05;;;;;;;27.94;34.85;100787.53;4227158;28;20024;-50
2022/08/31 07:14:36;;;;;;;2.78;1.80;;;;;;;27.96;35.17;100797.31;4231582;28;20032;-51
2022/08/31 07:16:38;;;;;;;2.47;2.28;;;;;;;27.96;35.10;100799.28;4223686;28;20036;-51
2022/08/31 07:18:41;;;;;;;3.08;2.15;;;;;;;27.95;34.78;100794.81;4219482;28;20028;-50
2022/08/31 07:20:42;;;;;;;3.13;2.00;;;;;;;27.94;34.85;100798.78;4222621;28;20100;-52
2022/08/31 07:22:44;;;;;;;2.33;2.13;;;;;;;27.94;35.10;100804.41;4215659;28;20093;-53
2022/08/31 07:24:45;;;;;;;2.42;1.70;;;;;;;27.81;34.96;100787.41;4215122;28;20040;-54
2022/08/31 07:26:53;;;;;;;2.63;2.30;;;;;;;27.80;34.69;100794.16;4216973;28;20429;-53
2022/08/31 07:28:56;;;;;;;2.50;2.13;;;;;;;27.92;35.21;100806.75;4215004;28;20097;-53
2022/08/31 07:30:58;;;;;;;2.03;1.83;;;;;;;27.92;35.05;100806.75;4229653;28;20048;-54
2022/08/31 07:33:05;;;;;;;2.17;1.80;;;;;;;27.91;34.90;100807.91;4215861;28;20548;-53
2022/08/31 07:35:07;;;;;;;1.98;1.88;;;;;;;27.88;34.91;100805.75;4214986;28;20047;-54
2022/08/31 07:44:10;;;;;;;2.88;2.03;;;;;;;27.75;35.05;100790.69;4228455;28;20070;-52
2022/08/31 07:46:12;;;;;;;4.47;2.08;;;;;;;27.89;35.04;100808.22;4215103;28;20422;-52
2022/08/31 07:48:14;;;;;;;2.25;2.05;;;;;;;27.91;34.73;100805.09;4214535;28;20039;-53
2022/08/31 07:50:16;;;;;;;2.00;1.73;;;;;;;27.88;35.15;100811.38;4215359;28;20105;-53
2022/08/31 07:52:30;;;;;;;2.97;1.92;;;;;;;27.67;34.89;100781.06;4215238;28;20484;-53
2022/08/31 07:54:35;;;;;;;2.42;1.90;;;;;;;27.88;34.79;100812.19;4201878;28;20376;-52
2022/08/31 07:56:37;;;;;;;2.10;1.90;;;;;;;27.77;34.99;100800.47;4214401;28;20089;-53
2022/08/31 07:58:39;;;;;;;3.17;1.80;;;;;;;27.88;34.72;100819.81;4219266;28;20040;-52
2022/08/31 08:00:45;;;;;;;2.97;1.80;;;;;;;27.88;34.73;100811.38;4221855;28;20077;-53
2022/08/31 08:02:52;;;;;;;2.28;2.08;;;;;;;27.84;35.14;100806.41;4225576;28;20065;-53
2022/08/31 08:04:58;;;;;;;1.88;1.70;;;;;;;27.88;34.88;100808.56;4218293;28;20418;-53
2022/08/31 08:07:04;;;;;;;2.25;1.90;;;;;;;27.81;34.94;100795.84;4225026;28;20036;-54
2022/08/31 08:09:06;;;;;;;1.98;1.85;;;;;;;27.85;35.03;100808.03;4225146;28;20051;-53
2022/08/31 08:11:09;;;;;;;1.90;1.80;;;;;;;27.85;34.60;100808.03;4225631;28;20092;-53
2022/08/31 08:13:11;;;;;;;2.05;1.77;;;;;;;27.84;34.64;100812.03;4231834;27;20104;-53
2022/08/31 08:15:13;;;;;;;2.28;1.83;;;;;;;27.85;34.85;100805.22;4231687;28;20088;-54
2022/08/31 08:17:15;;;;;;;2.00;1.55;;;;;;;27.84;34.93;100808.38;4231328;28;20093;-55
2022/08/31 08:19:16;;;;;;;2.00;1.80;;;;;;;27.81;34.69;100792.16;4221213;28;20488;-54
2022/08/31 08:21:20;;;;;;;1.83;1.73;;;;;;;27.83;34.69;100793.50;4214466;28;20036;-56
2022/08/31 08:23:22;;;;;;;2.05;1.83;;;;;;;27.63;34.93;100771.66;4226584;28;20076;-54
2022/08/31 08:25:26;;;;;;;2.25;1.80;;;;;;;27.61;35.10;100768.34;4230801;28;20031;-54
2022/08/31 08:27:30;;;;;;;2.22;1.88;;;;;;;27.83;34.78;100801.13;4214969;28;20044;-53
2022/08/31 08:29:31;;;;;;;1.67;1.58;;;;;;;27.83;34.89;100798.31;4213900;28;20032;-56
2022/08/31 08:31:33;;;;;;;2.10;1.85;;;;;;;27.83;34.92;100810.38;4214250;28;20070;-55
2022/08/31 08:33:35;;;;;;;2.03;1.65;;;;;;;27.79;34.63;100791.69;4214621;28;20044;-54
2022/08/31 08:35:39;;;;;;;1.75;1.65;;;;;;;27.83;34.78;100807.56;4223119;28;20036;-55
2022/08/31 08:37:42;;;;;;;2.10;1.90;;;;;;;27.60;35.03;100772.31;4216578;28;20040;-55
2022/08/31 08:39:44;;;;;;;2.10;1.90;;;;;;;27.82;34.92;100808.72;4214526;28;20032;-53
2022/08/31 08:41:46;;;;;;;1.85;1.70;;;;;;;27.79;34.68;100809.38;4228848;28;20020;-55
2022/08/31 08:43:56;;;;;;;2.75;2.20;;;;;;;27.81;34.73;100812.72;4230913;28;20077;-54
2022/08/31 08:46:01;;;;;;;2.28;2.03;;;;;;;27.81;34.90;100811.84;4231190;28;20068;-54
2022/08/31 08:48:08;;;;;;;3.10;1.92;;;;;;;27.57;34.58;100785.03;4231123;28;20139;-53
2022/08/31 08:50:09;;;;;;;1.90;1.80;;;;;;;27.80;34.62;100815.81;4229199;28;20107;-53
2022/08/31 08:52:17;;;;;;;1.90;1.70;;;;;;;27.79;34.94;100826.25;4213663;28;20101;-54
2022/08/31 08:54:40;;;;;;;1.90;1.80;;;;;;;27.79;34.73;100826.25;4216360;28;20040;-54
2022/08/31 08:56:51;;;;;;;2.17;1.98;;;;;;;27.78;34.64;100827.41;4229246;28;20466;-53
2022/08/31 08:58:53;;;;;;;3.05;2.35;;;;;;;27.79;34.94;100826.25;4225953;28;20020;-54
2022/08/31 09:00:57;;;;;;;1.92;1.77;;;;;;;27.79;34.70;100831.06;4214253;28;20438;-55
2022/08/31 09:03:11;;;;;;;1.58;1.48;;;;;;;27.77;34.62;100825.78;4223642;28;20140;-53
2022/08/31 09:05:29;;;;;;;2.03;1.67;;;;;;;27.75;34.51;100819.63;4218445;28;20089;-53
2022/08/31 09:07:57;;;;;;;1.45;1.35;;;;;;;27.74;34.51;100834.84;4219198;28;20441;-55
2022/08/31 09:10:21;;;;;;;1.92;1.70;;;;;;;27.72;34.53;100825.94;4215742;28;20035;-54
2022/08/31 09:12:43;;;;;;;1.63;1.42;;;;;;;27.73;34.91;100832.38;4229702;28;20039;-51
2022/08/31 09:15:02;;;;;;;1.42;1.33;;;;;;;27.73;34.66;100830.41;4229298;28;20096;-52
2022/08/31 09:17:16;;;;;;;1.55;1.45;;;;;;;27.74;34.78;100836.84;4228670;28;20429;-52
2022/08/31 09:19:23;;;;;;;1.85;1.50;;;;;;;27.59;34.82;100810.03;4216175;28;20044;-53
2022/08/31 09:21:39;;;;;;;1.85;1.75;;;;;;;27.66;34.75;100830.00;4227514;28;20510;-54
2022/08/31 09:23:47;;;;;;;1.92;1.50;;;;;;;27.71;34.75;100829.03;4221864;28;20077;-52
2022/08/31 09:25:51;;;;;;;1.70;1.60;;;;;;;27.70;34.81;100828.19;4212731;28;20429;-53
2022/08/31 09:27:57;;;;;;;1.73;1.63;;;;;;;27.71;34.39;100829.84;4213334;28;20036;-53
2022/08/31 09:30:00;;;;;;;2.03;1.80;;;;;;;27.71;34.65;100829.84;4220381;28;20105;-53
2022/08/31 09:32:06;;;;;;;2.03;1.65;;;;;;;27.70;34.75;100828.19;4213021;28;20494;-54
2022/08/31 09:34:24;;;;;;;1.80;1.65;;;;;;;27.71;34.36;100834.66;4217290;28;20027;-53
2022/08/31 09:36:33;;;;;;;2.15;1.95;;;;;;;27.68;34.59;100833.34;4230598;28;20036;-52
2022/08/31 09:38:39;;;;;;;1.52;1.42;;;;;;;27.67;34.73;100840.09;4215680;28;20056;-52
2022/08/31 09:40:46;;;;;;;1.70;1.48;;;;;;;27.67;34.63;100840.09;4218540;28;20047;-52
2022/08/31 09:43:02;;;;;;;1.83;1.65;;;;;;;27.65;34.85;100835.97;4217687;28;20121;-53
2022/08/31 09:45:11;;;;;;;2.13;1.75;;;;;;;27.66;34.55;100844.06;4212129;28;20048;-51
2022/08/31 09:47:41;;;;;;;1.42;1.33;;;;;;;27.64;34.57;100846.41;4213053;28;20044;-53